Time;durP1;ratioP1;P1;durP2;ratioP2;P2;SDS_P1;SDS_P2;PMS_P1;PMS_P2;Temp;Humidity;BMP_temperature;BMP_pressure;BME280_temperature;BME280_humidity;BME280_pressure;Samples;Min_cycle;Max_cycle;Signal;HPM_P1;HPM_P2
2022/01/18 00:00:51;;;;;;;11.02;4.20;;;21.00;46.20;;;;;;5067264;28;20040;-60
2022/01/18 00:03:17;;;;;;;10.02;3.58;;;21.00;46.20;;;;;;5067376;28;20044;-60
2022/01/18 00:05:45;;;;;;;10.45;3.78;;;21.00;46.10;;;;;;5065793;28;20094;-60
2022/01/18 00:08:11;;;;;;;9.88;3.80;;;21.00;46.20;;;;;;5070490;28;20060;-59
2022/01/18 00:10:37;;;;;;;9.60;3.42;;;20.90;46.10;;;;;;5065497;28;20071;-60
2022/01/18 00:15:40;;;;;;;10.75;3.42;;;20.90;46.10;;;;;;5064954;28;20131;-60
2022/01/18 00:18:12;;;;;;;11.25;3.97;;;20.90;46.20;;;;;;5065760;28;20059;-60
2022/01/18 00:23:15;;;;;;;10.27;3.58;;;20.90;46.80;;;;;;5069374;28;20040;-60
2022/01/18 00:25:45;;;;;;;9.85;3.65;;;20.90;47.10;;;;;;5071436;28;20397;-60
2022/01/18 00:28:11;;;;;;;9.88;3.47;;;20.90;47.30;;;;;;5068946;28;39091;-60
2022/01/18 00:35:40;;;;;;;18.33;3.60;;;20.90;47.60;;;;;;5071940;28;20045;-61
2022/01/18 00:38:15;;;;;;;16.55;4.22;;;20.80;47.60;;;;;;5071828;28;20055;-61
2022/01/18 00:40:41;;;;;;;15.18;4.18;;;20.80;47.70;;;;;;5068838;28;36184;-60
2022/01/18 00:43:07;;;;;;;18.15;4.03;;;20.80;47.70;;;;;;5067552;28;20094;-60
2022/01/18 00:45:33;;;;;;;9.43;3.13;;;20.80;47.60;;;;;;5067758;28;20048;-60
2022/01/18 00:47:58;;;;;;;11.65;4.05;;;20.80;47.60;;;;;;5069726;28;20411;-60
2022/01/18 00:50:27;;;;;;;14.50;3.90;;;20.80;47.60;;;;;;5072395;28;20518;-60
2022/01/18 00:52:53;;;;;;;15.95;3.75;;;20.80;47.50;;;;;;5069075;28;20479;-60
2022/01/18 00:55:20;;;;;;;12.02;3.72;;;20.80;47.60;;;;;;5068083;28;36625;-60
2022/01/18 00:57:45;;;;;;;14.82;4.30;;;20.80;47.50;;;;;;5069519;28;20422;-60
2022/01/18 01:00:11;;;;;;;10.35;3.78;;;20.70;47.50;;;;;;5068298;28;20100;-59
2022/01/18 01:02:37;;;;;;;10.30;3.50;;;20.70;47.50;;;;;;5067421;28;20036;-60
2022/01/18 01:05:03;;;;;;;10.65;3.03;;;20.70;47.70;;;;;;5069773;28;20048;-60
2022/01/18 01:07:28;;;;;;;13.40;3.50;;;20.70;47.40;;;;;;5071644;28;20051;-60
2022/01/18 01:09:54;;;;;;;12.88;3.90;;;20.70;47.50;;;;;;5067096;28;36013;-60
2022/01/18 01:12:23;;;;;;;9.25;3.47;;;20.60;47.40;;;;;;5070573;28;20047;-60
2022/01/18 01:14:52;;;;;;;14.55;3.78;;;20.60;47.40;;;;;;5070828;28;20038;-60
2022/01/18 01:42:07;;;;;;;16.38;3.70;;;20.50;47.20;;;;;;5071654;28;20039;-59
2022/01/18 01:44:46;;;;;;;17.83;3.60;;;20.50;47.10;;;;;;5059642;28;20052;-60
2022/01/18 01:47:17;;;;;;;21.83;4.07;;;20.50;47.10;;;;;;5066597;28;20032;-60
2022/01/18 01:49:43;;;;;;;30.75;5.82;;;20.50;47.10;;;;;;5072411;28;20063;-60
2022/01/18 01:52:11;;;;;;;32.08;5.32;;;20.50;47.10;;;;;;5065653;28;46109;-60
2022/01/18 01:54:39;;;;;;;31.33;4.90;;;20.50;47.00;;;;;;5072980;28;20047;-61
2022/01/18 01:57:06;;;;;;;24.13;5.18;;;20.50;47.00;;;;;;5068594;28;20040;-60
2022/01/18 01:59:32;;;;;;;19.27;3.63;;;20.50;47.10;;;;;;5073430;28;20060;-60
2022/01/18 02:01:57;;;;;;;26.60;4.72;;;20.50;47.10;;;;;;5064025;28;20046;-60
2022/01/18 02:04:23;;;;;;;23.75;5.22;;;20.40;47.00;;;;;;5068600;28;41414;-60
2022/01/18 02:06:49;;;;;;;26.00;4.70;;;20.40;47.00;;;;;;5067869;28;20052;-60
2022/01/18 02:09:15;;;;;;;20.80;4.10;;;20.40;46.90;;;;;;5071553;28;20153;-59
2022/01/18 02:11:41;;;;;;;20.60;3.60;;;20.40;46.90;;;;;;5069204;28;20636;-61
2022/01/18 02:14:13;;;;;;;20.27;4.70;;;20.40;46.90;;;;;;5071253;28;20038;-61
2022/01/18 02:22:10;;;;;;;16.60;3.80;;;20.40;46.90;;;;;;5071190;28;20052;-60
2022/01/18 02:24:35;;;;;;;20.88;4.07;;;20.40;46.90;;;;;;5068599;28;20465;-60
2022/01/18 02:27:01;;;;;;;24.80;4.32;;;20.40;46.90;;;;;;5070032;28;20051;-61
2022/01/18 02:29:27;;;;;;;18.13;3.88;;;20.40;46.80;;;;;;5067374;28;20566;-60
2022/01/18 02:31:54;;;;;;;15.75;3.38;;;20.30;46.70;;;;;;5070089;28;20094;-60
2022/01/18 02:34:20;;;;;;;16.55;4.20;;;20.30;46.70;;;;;;5065605;28;36416;-60
2022/01/18 02:36:47;;;;;;;15.85;3.63;;;20.30;46.70;;;;;;5070573;28;20099;-60
2022/01/18 02:39:14;;;;;;;15.32;3.42;;;20.30;46.70;;;;;;5068837;28;20040;-61
2022/01/18 02:41:40;;;;;;;21.50;3.85;;;20.30;46.70;;;;;;5069600;28;20040;-59
2022/01/18 02:44:13;;;;;;;16.52;3.42;;;20.30;46.60;;;;;;5069106;28;20051;-60
2022/01/18 02:46:41;;;;;;;12.07;3.40;;;20.30;46.70;;;;;;5061031;28;43738;-60
2022/01/18 02:49:07;;;;;;;19.63;4.20;;;20.30;46.00;;;;;;5066435;28;20040;-60
2022/01/18 02:51:34;;;;;;;18.42;4.38;;;20.20;46.60;;;;;;5068127;28;20047;-60
2022/01/18 02:54:08;;;;;;;14.30;3.03;;;20.20;46.60;;;;;;5068927;28;20094;-60
2022/01/18 02:56:43;;;;;;;9.73;3.05;;;20.30;46.60;;;;;;5067919;28;20048;-60
2022/01/18 02:59:23;;;;;;;10.23;3.33;;;20.20;46.60;;;;;;5070126;28;20404;-60
2022/01/18 03:04:41;;;;;;;10.02;2.72;;;20.20;46.50;;;;;;5065771;28;20040;-60
2022/01/18 03:07:08;;;;;;;15.75;3.50;;;20.20;46.60;;;;;;5066273;28;20094;-60
2022/01/18 03:09:34;;;;;;;10.13;3.03;;;20.20;46.60;;;;;;5067063;28;20102;-60
2022/01/18 03:12:00;;;;;;;11.40;2.83;;;20.20;46.60;;;;;;5069664;28;20045;-60
2022/01/18 03:14:26;;;;;;;9.38;2.88;;;20.20;46.50;;;;;;5063056;28;20048;-60
2022/01/18 03:16:51;;;;;;;12.48;3.50;;;20.20;46.50;;;;;;5067380;28;36139;-60
2022/01/18 03:19:17;;;;;;;9.68;2.55;;;20.20;46.40;;;;;;5064100;28;20559;-61
2022/01/18 03:21:43;;;;;;;9.73;2.78;;;20.20;46.40;;;;;;5067111;28;20051;-60
2022/01/18 03:24:13;;;;;;;7.38;2.50;;;20.20;46.40;;;;;;5066573;28;20039;-60
2022/01/18 03:29:24;;;;;;;10.93;2.47;;;20.20;46.40;;;;;;5062726;28;36084;-60
2022/01/18 03:31:50;;;;;;;11.55;3.13;;;20.10;46.40;;;;;;5066429;28;20050;-60
2022/01/18 03:34:15;;;;;;;10.13;2.80;;;20.10;46.30;;;;;;5066177;28;20028;-60
2022/01/18 03:36:41;;;;;;;8.48;2.72;;;20.10;46.30;;;;;;5068821;28;20043;-60
2022/01/18 03:39:06;;;;;;;9.80;2.45;;;20.10;46.30;;;;;;5066480;28;20048;-60
2022/01/18 03:41:32;;;;;;;6.78;2.28;;;20.10;46.30;;;;;;5066192;28;20051;-60
2022/01/18 03:43:58;;;;;;;8.45;2.28;;;20.10;46.30;;;;;;5064247;28;33545;-60
2022/01/18 03:46:24;;;;;;;10.13;2.80;;;20.10;46.30;;;;;;5067647;28;20041;-60
2022/01/18 03:48:51;;;;;;;6.03;2.53;;;20.10;46.30;;;;;;5067363;28;20075;-60
2022/01/18 03:51:17;;;;;;;9.20;2.65;;;20.10;46.30;;;;;;5067371;28;20075;-60
2022/01/18 03:53:43;;;;;;;9.32;2.53;;;20.10;46.20;;;;;;5064136;28;20067;-60
2022/01/18 03:56:09;;;;;;;8.55;2.47;;;20.10;46.20;;;;;;5065458;28;20036;-60
2022/01/18 03:58:35;;;;;;;8.68;3.05;;;20.10;46.20;;;;;;5065424;28;38447;-60
2022/01/18 04:01:00;;;;;;;6.75;2.40;;;20.10;46.30;;;;;;5063234;28;20085;-60
2022/01/18 04:03:27;;;;;;;7.03;2.20;;;20.10;46.20;;;;;;5069582;28;20535;-59
2022/01/18 04:05:52;;;;;;;5.43;2.20;;;20.00;46.10;;;;;;5064180;28;20523;-60
2022/01/18 04:08:20;;;;;;;6.50;2.40;;;20.00;46.10;;;;;;5068433;28;20052;-60
2022/01/18 04:10:45;;;;;;;7.80;2.30;;;20.10;46.20;;;;;;5065497;28;20520;-61
2022/01/18 04:13:11;;;;;;;8.70;2.95;;;20.00;46.20;;;;;;5066941;28;37022;-60
2022/01/18 04:15:36;;;;;;;6.50;2.28;;;20.00;46.20;;;;;;5063462;28;20106;-60
2022/01/18 04:28:43;;;;;;;7.28;2.22;;;20.00;46.20;;;;;;5067910;28;20054;-60
2022/01/18 04:31:10;;;;;;;8.10;3.00;;;20.00;46.10;;;;;;5066243;28;20459;-60
2022/01/18 04:33:37;;;;;;;10.90;2.65;;;20.00;46.20;;;;;;5069117;28;20044;-60
2022/01/18 04:36:07;;;;;;;6.18;2.20;;;20.00;46.10;;;;;;5067127;28;20047;-59
2022/01/18 04:38:34;;;;;;;6.15;2.45;;;20.00;46.10;;;;;;5067693;28;20056;-60
2022/01/18 04:41:05;;;;;;;7.45;2.40;;;19.90;46.10;;;;;;5064207;28;38607;-59
2022/01/18 04:49:00;;;;;;;8.75;2.20;;;19.90;46.10;;;;;;5064354;28;20051;-60
2022/01/18 04:51:26;;;;;;;6.55;2.05;;;19.90;46.00;;;;;;5066940;28;20360;-61
2022/01/18 04:53:55;;;;;;;5.45;1.90;;;19.90;46.00;;;;;;5064248;28;33889;-60
2022/01/18 04:59:15;;;;;;;5.65;2.08;;;19.90;46.00;;;;;;5026347;28;20051;-60
2022/01/18 05:01:44;;;;;;;5.38;2.20;;;19.90;46.00;;;;;;5060631;28;20072;-60
2022/01/18 05:04:10;;;;;;;6.38;1.98;;;19.90;46.00;;;;;;5065311;28;20495;-60
2022/01/18 05:06:35;;;;;;;7.65;2.03;;;19.90;46.00;;;;;;5063414;28;20045;-60
2022/01/18 05:09:07;;;;;;;4.50;1.80;;;19.90;46.00;;;;;;5069421;28;20071;-60
2022/01/18 05:11:45;;;;;;;7.15;2.50;;;19.90;46.10;;;;;;5066886;28;20056;-61
2022/01/18 05:14:24;;;;;;;4.03;1.90;;;19.90;46.00;;;;;;5073579;28;20060;-59
2022/01/18 05:17:00;;;;;;;5.22;2.30;;;19.80;46.00;;;;;;5069850;28;20036;-59
2022/01/18 05:19:40;;;;;;;7.20;1.98;;;19.80;46.00;;;;;;5066633;28;20059;-60
2022/01/18 05:24:32;;;;;;;7.90;2.17;;;19.80;46.00;;;;;;5069324;28;20102;-59
2022/01/18 05:27:01;;;;;;;6.20;2.00;;;19.80;45.90;;;;;;5071465;28;20531;-60
2022/01/18 05:29:27;;;;;;;6.78;2.55;;;19.80;46.00;;;;;;5071457;28;20092;-60
2022/01/18 05:31:52;;;;;;;6.68;2.40;;;19.80;46.00;;;;;;5048809;28;20476;-60
2022/01/18 05:34:18;;;;;;;3.35;1.80;;;19.80;46.20;;;;;;5070526;28;20670;-60
2022/01/18 05:36:45;;;;;;;7.30;2.60;;;19.80;46.40;;;;;;5062437;28;39007;-61
2022/01/18 05:39:11;;;;;;;7.75;2.20;;;19.80;46.50;;;;;;5072722;28;20040;-60
2022/01/18 05:41:39;;;;;;;6.95;2.10;;;19.80;46.60;;;;;;5067301;28;20033;-59
2022/01/18 05:44:06;;;;;;;5.20;1.98;;;19.80;46.70;;;;;;5075142;28;20033;-61
2022/01/18 05:46:32;;;;;;;5.65;1.77;;;19.80;46.80;;;;;;5067507;28;20057;-61
2022/01/18 05:49:01;;;;;;;6.55;1.88;;;19.80;46.90;;;;;;5067373;28;20050;-61
2022/01/18 05:51:30;;;;;;;9.27;2.00;;;19.80;47.10;;;;;;5064914;28;41280;-61
2022/01/18 05:53:56;;;;;;;5.35;2.08;;;19.90;47.20;;;;;;5068598;28;20137;-60
2022/01/18 05:56:21;;;;;;;4.60;1.75;;;19.80;47.20;;;;;;5071396;28;20523;-61
2022/01/18 05:58:49;;;;;;;4.65;1.58;;;19.90;47.40;;;;;;5068543;28;21086;-60
2022/01/18 06:01:26;;;;;;;5.00;2.15;;;19.90;47.40;;;;;;5066326;28;20734;-61
2022/01/18 06:04:10;;;;;;;5.45;2.20;;;19.90;47.50;;;;;;5065749;28;37552;-61
2022/01/18 06:06:53;;;;;;;4.82;1.92;;;19.90;47.60;;;;;;5064900;28;20059;-61
2022/01/18 06:09:21;;;;;;;5.25;2.00;;;19.90;47.60;;;;;;5071190;28;20083;-60
2022/01/18 06:11:47;;;;;;;5.72;2.05;;;19.90;47.70;;;;;;5066690;28;20131;-61
2022/01/18 06:14:12;;;;;;;3.60;1.70;;;19.90;47.70;;;;;;5071044;28;20420;-61
2022/01/18 06:16:38;;;;;;;5.45;1.73;;;19.90;47.70;;;;;;5066936;28;20062;-60
2022/01/18 06:19:04;;;;;;;5.60;1.77;;;19.90;47.80;;;;;;5065896;28;31180;-60
2022/01/18 06:21:29;;;;;;;5.85;1.70;;;19.90;47.90;;;;;;5066709;28;20032;-60
2022/01/18 06:23:55;;;;;;;6.43;1.83;;;19.90;48.00;;;;;;5070776;28;20040;-59
2022/01/18 06:26:20;;;;;;;7.57;1.83;;;19.90;47.90;;;;;;5071878;28;20435;-60
2022/01/18 06:28:46;;;;;;;4.38;1.75;;;20.00;48.00;;;;;;5068952;28;20049;-59
2022/01/18 06:31:13;;;;;;;4.63;1.60;;;20.00;48.00;;;;;;5071183;28;20082;-60
2022/01/18 06:33:38;;;;;;;6.45;1.88;;;20.00;48.00;;;;;;5062892;28;26953;-60
2022/01/18 06:36:04;;;;;;;5.78;1.83;;;20.00;48.10;;;;;;5068874;28;20048;-60
2022/01/18 06:38:30;;;;;;;6.47;1.70;;;20.00;48.40;;;;;;5068412;28;20534;-60
2022/01/18 06:40:56;;;;;;;4.30;1.70;;;20.00;48.60;;;;;;5069606;28;20499;-60
2022/01/18 06:43:21;;;;;;;5.13;1.75;;;20.00;48.50;;;;;;5064067;28;20118;-59
2022/01/18 06:45:47;;;;;;;3.92;1.77;;;20.00;48.50;;;;;;5065917;28;38678;-60
2022/01/18 06:48:13;;;;;;;3.63;1.70;;;20.00;48.50;;;;;;5066459;28;20039;-60
2022/01/18 06:50:38;;;;;;;3.53;1.40;;;20.10;48.50;;;;;;5069885;28;20036;-60
2022/01/18 06:53:04;;;;;;;4.20;1.58;;;20.10;48.50;;;;;;5072782;28;20260;-60
2022/01/18 06:55:30;;;;;;;5.78;1.83;;;20.10;48.40;;;;;;5064498;28;20032;-60
2022/01/18 06:57:56;;;;;;;3.38;1.58;;;20.10;48.40;;;;;;5070297;28;20155;-59
2022/01/18 07:00:22;;;;;;;4.28;1.58;;;20.10;48.40;;;;;;5065942;28;41266;-60
2022/01/18 07:02:48;;;;;;;2.50;1.55;;;20.10;48.30;;;;;;5069541;28;20036;-60
2022/01/18 07:05:14;;;;;;;7.07;1.80;;;20.10;48.40;;;;;;5065448;28;20092;-60
2022/01/18 07:07:40;;;;;;;5.45;1.80;;;20.10;48.40;;;;;;5066205;28;20041;-60
2022/01/18 07:10:07;;;;;;;3.60;1.38;;;20.10;48.30;;;;;;5067851;28;20035;-61
2022/01/18 07:12:34;;;;;;;5.10;1.75;;;20.10;48.20;;;;;;5068418;28;20037;-60
2022/01/18 07:15:06;;;;;;;2.55;1.20;;;20.20;48.20;;;;;;5068562;28;38797;-59
2022/01/18 07:17:32;;;;;;;4.55;1.83;;;20.20;48.20;;;;;;5068304;28;20041;-59
2022/01/18 07:19:58;;;;;;;4.55;1.40;;;20.20;48.10;;;;;;5066261;28;20032;-59
2022/01/18 07:22:23;;;;;;;4.88;1.30;;;20.10;48.00;;;;;;5060928;28;20037;-60
2022/01/18 07:24:55;;;;;;;3.60;1.17;;;20.20;48.00;;;;;;5064244;28;20066;-59
2022/01/18 07:27:20;;;;;;;3.85;1.40;;;20.20;48.00;;;;;;5068675;28;20040;-59
2022/01/18 07:29:46;;;;;;;6.30;1.95;;;20.20;48.00;;;;;;5065819;28;39145;-59
2022/01/18 07:32:12;;;;;;;4.55;1.92;;;20.20;48.00;;;;;;5068024;28;20040;-60
2022/01/18 07:34:46;;;;;;;4.70;1.40;;;20.20;48.00;;;;;;5064896;28;20036;-59
2022/01/18 07:37:12;;;;;;;3.40;1.48;;;20.20;48.00;;;;;;5067963;28;20086;-60
2022/01/18 07:39:37;;;;;;;5.07;1.85;;;20.20;47.90;;;;;;5066211;28;20450;-60
2022/01/18 07:42:03;;;;;;;4.75;1.50;;;20.20;48.00;;;;;;5064006;28;39582;-60
2022/01/18 07:44:30;;;;;;;2.88;1.30;;;20.20;47.90;;;;;;5066820;28;20036;-60
2022/01/18 07:46:55;;;;;;;4.15;1.33;;;20.20;47.90;;;;;;5067168;28;20046;-60
2022/01/18 07:49:21;;;;;;;4.57;1.40;;;20.20;47.90;;;;;;5067033;28;20032;-59
2022/01/18 07:51:46;;;;;;;7.78;1.50;;;20.20;47.80;;;;;;5065211;28;20060;-60
2022/01/18 07:54:12;;;;;;;2.53;1.10;;;20.20;47.80;;;;;;5068596;28;20115;-61
2022/01/18 07:56:41;;;;;;;4.03;1.50;;;20.20;47.70;;;;;;5063707;28;36348;-60
2022/01/18 07:59:07;;;;;;;2.90;1.27;;;20.20;47.70;;;;;;5066436;28;20124;-59
2022/01/18 08:01:33;;;;;;;4.15;1.35;;;20.20;47.60;;;;;;5065656;28;20047;-60
2022/01/18 08:03:58;;;;;;;3.25;1.30;;;20.20;47.60;;;;;;5067150;28;20044;-60
2022/01/18 08:06:24;;;;;;;4.05;1.20;;;20.30;47.60;;;;;;5065102;28;20056;-60
2022/01/18 08:08:49;;;;;;;2.92;1.15;;;20.30;47.60;;;;;;5062166;28;20424;-60
2022/01/18 08:11:16;;;;;;;4.63;1.52;;;20.30;47.50;;;;;;5064893;28;41198;-59
2022/01/18 08:13:45;;;;;;;4.50;1.40;;;20.30;47.50;;;;;;5068030;28;20083;-60
2022/01/18 08:18:58;;;;;;;4.65;1.27;;;20.30;47.50;;;;;;5020889;28;20036;-61
2022/01/18 08:21:24;;;;;;;3.25;1.45;;;20.30;47.50;;;;;;5066919;28;20048;-58
2022/01/18 08:23:50;;;;;;;3.90;1.38;;;20.30;47.40;;;;;;5067128;28;20845;-59
2022/01/18 08:26:16;;;;;;;3.20;1.15;;;20.30;47.40;;;;;;5064609;28;24826;-60
2022/01/18 08:28:41;;;;;;;4.10;1.23;;;20.30;47.20;;;;;;5068115;28;20036;-59
2022/01/18 08:31:07;;;;;;;2.90;1.25;;;20.30;47.20;;;;;;5066898;28;20545;-60
2022/01/18 08:33:33;;;;;;;4.20;1.58;;;20.30;47.20;;;;;;5070171;28;20051;-59
2022/01/18 08:36:00;;;;;;;5.28;1.67;;;20.40;47.20;;;;;;5069175;28;20040;-59
2022/01/18 08:38:29;;;;;;;3.15;1.42;;;20.40;47.10;;;;;;5066610;28;38595;-60
2022/01/18 08:40:54;;;;;;;3.05;1.35;;;20.40;47.10;;;;;;5067133;28;20039;-59
2022/01/18 08:43:21;;;;;;;2.40;1.25;;;20.40;47.00;;;;;;5066900;28;20693;-60
2022/01/18 08:45:47;;;;;;;4.93;1.83;;;20.40;47.00;;;;;;5072368;28;20846;-59
2022/01/18 08:48:13;;;;;;;2.08;1.38;;;20.40;46.90;;;;;;5072100;28;20044;-59
2022/01/18 08:50:39;;;;;;;4.63;1.98;;;20.40;46.90;;;;;;5072459;28;20467;-59
2022/01/18 08:53:04;;;;;;;4.25;1.77;;;20.40;46.90;;;;;;5066867;28;33762;-59
2022/01/18 08:55:33;;;;;;;3.40;1.70;;;20.40;46.70;;;;;;5072379;28;20122;-59
2022/01/18 08:57:58;;;;;;;3.50;1.48;;;20.40;46.70;;;;;;5072471;28;20085;-59
2022/01/18 09:00:24;;;;;;;3.25;1.80;;;20.40;46.80;;;;;;5073526;28;20048;-59
2022/01/18 09:02:49;;;;;;;3.05;1.58;;;20.40;46.60;;;;;;5074940;28;20859;-59
2022/01/18 09:05:15;;;;;;;3.95;1.42;;;20.40;46.70;;;;;;5068008;28;20040;-59
2022/01/18 09:07:41;;;;;;;2.97;1.65;;;20.50;46.70;;;;;;5070764;28;41218;-60
2022/01/18 09:10:09;;;;;;;2.78;1.90;;;20.40;46.60;;;;;;5067748;28;20080;-59
2022/01/18 09:12:35;;;;;;;2.47;1.55;;;20.50;46.60;;;;;;5071830;28;20124;-60
2022/01/18 09:15:04;;;;;;;2.65;1.52;;;20.50;46.50;;;;;;5071065;28;20127;-59
2022/01/18 09:17:31;;;;;;;3.45;1.80;;;20.50;46.50;;;;;;5070605;28;20293;-60
2022/01/18 09:19:58;;;;;;;3.65;1.77;;;20.50;46.50;;;;;;5073182;28;20094;-60
2022/01/18 09:22:24;;;;;;;4.15;1.60;;;20.50;46.40;;;;;;5066353;28;20108;-59
2022/01/18 09:24:49;;;;;;;4.32;1.60;;;20.50;46.40;;;;;;5074160;28;20111;-59
2022/01/18 09:27:15;;;;;;;2.83;1.63;;;20.60;46.40;;;;;;5069047;28;20040;-59
2022/01/18 09:29:41;;;;;;;3.00;1.42;;;20.60;46.40;;;;;;5073319;28;20051;-60
2022/01/18 09:32:07;;;;;;;3.05;1.70;;;20.50;46.20;;;;;;5069724;28;20506;-59
2022/01/18 09:34:33;;;;;;;2.80;1.40;;;20.60;46.70;;;;;;5068871;28;31346;-59
2022/01/18 09:36:59;;;;;;;3.20;1.42;;;20.50;46.20;;;;;;5065301;28;20105;-59
2022/01/18 09:39:25;;;;;;;3.15;1.60;;;20.60;46.20;;;;;;5072514;28;20411;-59
2022/01/18 09:41:54;;;;;;;3.80;1.55;;;20.60;46.20;;;;;;5069321;28;20024;-59
2022/01/18 09:44:20;;;;;;;4.45;1.67;;;20.60;46.20;;;;;;5071358;28;20551;-60
2022/01/18 09:46:49;;;;;;;2.47;1.38;;;20.60;46.30;;;;;;5068080;28;20126;-59
2022/01/18 09:49:15;;;;;;;4.10;1.38;;;20.60;46.30;;;;;;5065087;28;38564;-60
2022/01/18 09:51:40;;;;;;;3.33;1.40;;;20.60;46.50;;;;;;5066663;28;20089;-60
2022/01/18 09:54:06;;;;;;;4.20;1.58;;;20.60;46.70;;;;;;5065732;28;20046;-60
2022/01/18 09:56:32;;;;;;;3.88;1.75;;;20.70;47.00;;;;;;5064935;28;20075;-59
2022/01/18 09:58:57;;;;;;;3.25;1.50;;;20.60;47.00;;;;;;5066515;28;20028;-60
2022/01/18 10:01:23;;;;;;;2.90;1.20;;;20.70;47.10;;;;;;5070332;28;20094;-60
2022/01/18 10:03:49;;;;;;;2.53;1.27;;;20.70;47.20;;;;;;5065807;28;45641;-60
2022/01/18 10:06:18;;;;;;;2.97;1.30;;;20.70;47.20;;;;;;5067505;28;20644;-60
2022/01/18 10:08:49;;;;;;;3.13;1.20;;;20.70;47.30;;;;;;5067278;28;20036;-59
2022/01/18 10:11:17;;;;;;;2.15;1.20;;;20.80;47.40;;;;;;5070696;28;20119;-59
2022/01/18 10:13:46;;;;;;;1.88;1.10;;;20.70;47.30;;;;;;5070669;28;20056;-60
2022/01/18 10:16:17;;;;;;;3.53;1.48;;;20.80;47.30;;;;;;5063072;28;20479;-60
2022/01/18 10:18:49;;;;;;;3.25;1.38;;;20.80;47.30;;;;;;5066855;28;43402;-60
2022/01/18 10:21:34;;;;;;;2.28;0.90;;;20.80;47.30;;;;;;5068015;28;20058;-59
2022/01/18 10:24:20;;;;;;;4.10;1.23;;;20.80;47.30;;;;;;5066590;28;20371;-60
2022/01/18 10:26:48;;;;;;;2.30;1.02;;;20.80;47.30;;;;;;5067646;28;20052;-59
2022/01/18 10:29:14;;;;;;;5.43;1.08;;;20.80;47.40;;;;;;5065919;28;20416;-59
2022/01/18 10:31:55;;;;;;;3.72;1.17;;;20.80;47.40;;;;;;5063644;28;20079;-59
2022/01/18 10:37:05;;;;;;;2.75;0.85;;;20.80;47.30;;;;;;5065435;28;20106;-59
2022/01/18 10:39:36;;;;;;;2.72;0.90;;;20.90;47.50;;;;;;5068185;28;20149;-60
2022/01/18 10:42:25;;;;;;;3.95;1.17;;;20.80;47.30;;;;;;5063214;28;20113;-60
2022/01/18 10:45:03;;;;;;;3.00;0.80;;;20.90;47.40;;;;;;5064738;28;38644;-59
2022/01/18 10:47:30;;;;;;;4.22;1.10;;;20.90;47.30;;;;;;5063314;28;20459;-59
2022/01/18 10:49:57;;;;;;;3.45;1.00;;;20.90;47.30;;;;;;5063785;28;20064;-60
2022/01/18 10:52:26;;;;;;;2.35;0.90;;;20.90;47.30;;;;;;5066416;28;20530;-59
2022/01/18 10:55:01;;;;;;;2.67;0.93;;;20.90;47.30;;;;;;5066728;28;20111;-59
2022/01/18 10:57:39;;;;;;;1.90;0.60;;;20.90;47.20;;;;;;5067902;28;20066;-60
2022/01/18 11:00:11;;;;;;;1.90;0.70;;;20.90;47.10;;;;;;5065421;28;31293;-58
2022/01/18 11:02:42;;;;;;;2.97;1.02;;;20.90;47.00;;;;;;5066881;28;21031;-59
2022/01/18 11:05:25;;;;;;;2.28;0.75;;;20.90;47.00;;;;;;5065209;28;20094;-59
2022/01/18 11:07:52;;;;;;;2.53;0.90;;;20.90;47.00;;;;;;5063426;28;20040;-60
2022/01/18 11:10:21;;;;;;;2.15;0.90;;;20.90;47.00;;;;;;5068925;28;20119;-60
2022/01/18 11:12:53;;;;;;;1.70;1.00;;;20.90;47.10;;;;;;5045631;28;43285;-60
2022/01/18 11:15:21;;;;;;;1.52;0.80;;;21.00;47.10;;;;;;5072953;28;20028;-59
2022/01/18 11:17:57;;;;;;;1.55;0.90;;;21.00;47.10;;;;;;5067289;28;20059;-59
2022/01/18 11:20:24;;;;;;;3.90;0.93;;;21.00;47.10;;;;;;5067583;28;20036;-60
2022/01/18 11:22:51;;;;;;;3.47;0.85;;;21.00;47.00;;;;;;5066594;28;20129;-59
2022/01/18 11:25:18;;;;;;;4.43;1.00;;;21.00;47.10;;;;;;5066598;28;20048;-60
2022/01/18 11:27:48;;;;;;;2.63;0.68;;;21.00;47.00;;;;;;5069884;28;36368;-59
2022/01/18 11:30:15;;;;;;;3.42;0.90;;;21.00;46.90;;;;;;5067280;28;20392;-59
2022/01/18 11:32:42;;;;;;;3.10;0.80;;;21.00;47.00;;;;;;5071857;28;20545;-60
2022/01/18 11:35:36;;;;;;;2.63;0.95;;;21.00;47.00;;;;;;5064860;28;20167;-60
2022/01/18 11:38:16;;;;;;;3.15;1.00;;;21.00;46.90;;;;;;5067059;28;20059;-60
2022/01/18 11:40:50;;;;;;;2.28;0.90;;;21.00;46.90;;;;;;5069765;28;20040;-60
2022/01/18 11:43:35;;;;;;;1.30;0.75;;;21.10;47.00;;;;;;5067237;28;20097;-56
2022/01/18 11:46:32;;;;;;;1.70;0.60;;;21.00;46.90;;;;;;5068561;28;20043;-58
2022/01/18 11:49:08;;;;;;;1.77;0.77;;;21.00;46.90;;;;;;5070226;28;20048;-60
2022/01/18 11:51:43;;;;;;;5.70;0.77;;;21.00;47.00;;;;;;5068229;28;20074;-59
2022/01/18 11:54:42;;;;;;;4.60;1.10;;;21.00;47.00;;;;;;5066093;28;20074;-58
2022/01/18 11:57:27;;;;;;;3.22;0.80;;;21.00;46.80;;;;;;5067550;28;36356;-60
2022/01/18 11:59:55;;;;;;;2.95;0.85;;;21.00;46.70;;;;;;5067809;28;20053;-59
2022/01/18 12:02:30;;;;;;;3.22;0.80;;;21.00;46.70;;;;;;5072517;28;20376;-59
2022/01/18 12:04:58;;;;;;;2.88;0.73;;;21.00;46.60;;;;;;5067015;28;20144;-60
2022/01/18 12:07:44;;;;;;;3.78;1.08;;;21.00;46.50;;;;;;5071619;28;20057;-59
2022/01/18 12:10:30;;;;;;;1.45;0.88;;;21.10;46.50;;;;;;5056143;28;43200;-59
2022/01/18 12:13:10;;;;;;;2.17;0.65;;;21.00;46.30;;;;;;5068735;28;20119;-58
2022/01/18 12:15:39;;;;;;;2.42;1.00;;;21.00;46.40;;;;;;5069285;28;20507;-59
2022/01/18 12:18:17;;;;;;;2.90;0.80;;;21.00;46.20;;;;;;5069742;28;20060;-60
2022/01/18 12:20:48;;;;;;;2.03;0.93;;;21.10;46.20;;;;;;5071410;28;20064;-60
2022/01/18 12:23:18;;;;;;;2.15;0.75;;;21.00;46.90;;;;;;5069086;28;38638;-59
2022/01/18 12:26:03;;;;;;;2.00;0.88;;;21.00;46.10;;;;;;5068946;28;20451;-58
2022/01/18 12:29:07;;;;;;;1.95;0.80;;;21.00;46.00;;;;;;5074379;28;20040;-59
2022/01/18 12:34:31;;;;;;;3.10;1.00;;;21.00;46.00;;;;;;5068616;28;20052;-58
2022/01/18 12:39:50;;;;;;;3.55;1.23;;;21.00;45.90;;;;;;5071339;28;20101;-59
2022/01/18 12:45:11;;;;;;;4.82;1.10;;;21.00;45.70;;;;;;5072202;28;20040;-59
2022/01/18 12:47:43;;;;;;;3.58;0.98;;;21.00;45.70;;;;;;5071941;28;20036;-59
2022/01/18 12:50:13;;;;;;;2.38;1.27;;;21.00;46.30;;;;;;5072845;28;20039;-59
2022/01/18 12:53:07;;;;;;;2.97;1.25;;;21.00;45.50;;;;;;5068786;28;38352;-60
2022/01/18 12:55:42;;;;;;;4.22;0.95;;;21.00;45.40;;;;;;5072082;28;20086;-58
2022/01/18 12:58:13;;;;;;;2.53;1.05;;;21.00;45.50;;;;;;5074363;28;20494;-59
2022/01/18 13:00:40;;;;;;;1.30;0.77;;;21.00;45.40;;;;;;5069314;28;20059;-59
2022/01/18 13:03:06;;;;;;;2.33;1.10;;;20.90;45.30;;;;;;5073178;28;20039;-59
2022/01/18 13:05:37;;;;;;;1.50;1.17;;;20.90;45.40;;;;;;5066132;28;43491;-59
2022/01/18 13:08:04;;;;;;;3.65;0.95;;;21.00;45.60;;;;;;5071570;28;20056;-60
2022/01/18 13:10:39;;;;;;;2.50;1.27;;;21.00;45.50;;;;;;5070292;28;20047;-60
2022/01/18 13:13:06;;;;;;;2.13;1.00;;;21.00;45.50;;;;;;5070590;28;20097;-60
2022/01/18 13:24:13;;;;;;;2.97;1.05;;;20.90;45.60;;;;;;5072613;28;20474;-60
2022/01/18 13:26:46;;;;;;;4.03;1.13;;;20.90;45.60;;;;;;5069648;28;20085;-62
2022/01/18 13:29:15;;;;;;;1.73;1.00;;;20.90;45.60;;;;;;5073884;28;20067;-60
2022/01/18 13:31:44;;;;;;;1.90;1.15;;;20.90;45.60;;;;;;5069052;28;20075;-60
2022/01/18 13:34:13;;;;;;;3.42;1.10;;;20.90;45.60;;;;;;5068913;28;36441;-60
2022/01/18 13:36:55;;;;;;;2.08;0.98;;;20.90;45.60;;;;;;5068692;28;20059;-60
2022/01/18 13:39:36;;;;;;;2.40;1.20;;;20.90;45.50;;;;;;5070698;28;20519;-60
2022/01/18 13:42:03;;;;;;;3.70;1.15;;;20.90;46.30;;;;;;5070335;28;20032;-60
2022/01/18 13:44:30;;;;;;;2.15;1.20;;;20.90;45.50;;;;;;5068201;28;20235;-61
2022/01/18 13:47:18;;;;;;;2.90;1.15;;;20.90;45.50;;;;;;5052091;28;20094;-61
2022/01/18 13:49:44;;;;;;;2.28;1.35;;;20.90;45.50;;;;;;5065124;28;36458;-60
2022/01/18 13:52:12;;;;;;;4.05;1.20;;;20.90;45.50;;;;;;5063051;28;20155;-60
2022/01/18 13:54:50;;;;;;;2.65;1.17;;;20.90;45.60;;;;;;5069818;28;20044;-60
2022/01/18 13:57:18;;;;;;;2.25;1.20;;;20.90;45.70;;;;;;5065552;28;20494;-60
2022/01/18 13:59:47;;;;;;;3.15;1.42;;;20.90;45.80;;;;;;5068730;28;20075;-60
2022/01/18 14:02:21;;;;;;;3.25;1.55;;;20.90;45.90;;;;;;5064561;28;40912;-60
2022/01/18 14:05:07;;;;;;;2.97;1.50;;;20.90;45.90;;;;;;5072300;28;20037;-60
2022/01/18 14:07:33;;;;;;;3.67;1.50;;;20.90;46.00;;;;;;5068507;28;20074;-60
2022/01/18 14:09:59;;;;;;;4.88;1.48;;;20.80;46.00;;;;;;5068062;28;20044;-60
2022/01/18 14:12:33;;;;;;;3.28;1.45;;;20.80;46.00;;;;;;5071141;28;20086;-60
2022/01/18 14:14:59;;;;;;;2.80;1.45;;;20.90;46.20;;;;;;5068892;28;20074;-59
2022/01/18 14:17:25;;;;;;;2.67;1.35;;;20.80;46.20;;;;;;5065072;28;43514;-60
2022/01/18 14:20:08;;;;;;;15.95;1.52;;;20.90;46.40;;;;;;5070837;28;20047;-60
2022/01/18 14:22:38;;;;;;;2.20;1.25;;;20.80;46.30;;;;;;5068264;28;20048;-59
2022/01/18 14:25:07;;;;;;;2.88;1.40;;;20.80;46.40;;;;;;5071906;28;20047;-60